Time;durP1;ratioP1;P1;durP2;ratioP2;P2;SDS_P1;SDS_P2;PMS_P1;PMS_P2;Temp;Humidity;BMP_temperature;BMP_pressure;BME280_temperature;BME280_humidity;BME280_pressure;Samples;Min_cycle;Max_cycle;Signal;HPM_P1;HPM_P2
2022/11/26 00:00:53;;;;;;;17.63;9.27;;;5.30;99.90;;;;;;5092909;28;20746;-79
2022/11/26 00:03:19;;;;;;;17.63;8.40;;;5.30;99.90;;;;;;5092757;28;20099;-79
2022/11/26 00:05:48;;;;;;;15.03;8.73;;;5.30;99.90;;;;;;5092834;28;20258;-79
2022/11/26 00:08:21;;;;;;;17.40;8.60;;;5.30;99.90;;;;;;5092557;28;20043;-79
2022/11/26 00:10:51;;;;;;;18.17;9.07;;;5.30;99.90;;;;;;5092740;28;20372;-79
2022/11/26 00:13:22;;;;;;;16.83;8.13;;;5.20;99.90;;;;;;5092600;28;20040;-79
2022/11/26 00:15:49;;;;;;;17.50;8.77;;;5.20;99.90;;;;;;5092549;28;20074;-79
2022/11/26 00:18:16;;;;;;;15.40;8.17;;;5.20;99.90;;;;;;5092382;28;20057;-79
2022/11/26 00:20:43;;;;;;;17.60;8.47;;;5.20;99.90;;;;;;5092413;28;20020;-79
2022/11/26 00:23:20;;;;;;;15.83;8.70;;;5.20;99.90;;;;;;5091980;28;20032;-79
2022/11/26 00:25:54;;;;;;;17.10;7.70;;;5.20;99.90;;;;;;5092112;28;20387;-79
2022/11/26 00:28:32;;;;;;;16.70;8.03;;;5.20;99.90;;;;;;5092084;28;20032;-80
2022/11/26 00:31:01;;;;;;;13.40;8.13;;;5.10;99.90;;;;;;5091990;28;20127;-79
2022/11/26 00:33:27;;;;;;;14.27;8.20;;;5.10;99.90;;;;;;5092022;28;20093;-79
2022/11/26 00:35:57;;;;;;;16.50;8.70;;;5.10;99.90;;;;;;5092273;28;20047;-79
2022/11/26 00:38:23;;;;;;;19.13;8.80;;;5.10;99.90;;;;;;5091922;28;20103;-79
2022/11/26 00:40:49;;;;;;;17.03;8.20;;;5.00;99.90;;;;;;5091943;28;20050;-80
2022/11/26 00:43:16;;;;;;;16.40;8.90;;;5.00;99.90;;;;;;5092008;28;20400;-79
2022/11/26 00:45:42;;;;;;;14.60;8.10;;;5.00;99.90;;;;;;5091920;28;20028;-80
2022/11/26 00:48:07;;;;;;;15.03;7.83;;;5.00;99.90;;;;;;5091973;28;20055;-79
2022/11/26 00:50:38;;;;;;;16.37;8.23;;;5.00;99.90;;;;;;5091587;28;20060;-79
2022/11/26 00:53:05;;;;;;;17.27;7.93;;;4.90;99.90;;;;;;5091862;28;20542;-80
2022/11/26 00:55:32;;;;;;;17.77;8.27;;;4.90;99.90;;;;;;5091766;28;20024;-80
2022/11/26 00:57:58;;;;;;;14.53;8.27;;;4.80;99.90;;;;;;5091702;28;20027;-79
2022/11/26 01:00:26;;;;;;;16.60;8.53;;;4.80;99.90;;;;;;5091664;28;20031;-80
2022/11/26 01:02:52;;;;;;;13.87;8.40;;;4.80;99.90;;;;;;5091510;28;20050;-80
2022/11/26 01:05:19;;;;;;;17.50;9.40;;;4.80;99.90;;;;;;5091606;28;20397;-79
2022/11/26 01:07:45;;;;;;;12.73;8.47;;;4.80;99.90;;;;;;5091524;28;20024;-80
2022/11/26 01:10:16;;;;;;;13.47;8.53;;;4.80;99.90;;;;;;5091807;28;20050;-79
2022/11/26 01:12:41;;;;;;;16.73;8.30;;;4.80;99.90;;;;;;5091120;28;20036;-79
2022/11/26 01:15:07;;;;;;;17.37;8.83;;;4.80;99.90;;;;;;5091345;28;20032;-79
2022/11/26 01:17:33;;;;;;;16.53;7.67;;;4.80;99.90;;;;;;5091221;28;20032;-79
2022/11/26 01:19:58;;;;;;;12.77;8.40;;;4.80;99.90;;;;;;5091514;28;20623;-79
2022/11/26 01:22:24;;;;;;;17.43;8.33;;;4.80;99.90;;;;;;5091105;28;20103;-79
2022/11/26 01:24:50;;;;;;;20.93;8.73;;;4.80;99.90;;;;;;5091358;28;20066;-79
2022/11/26 01:27:18;;;;;;;11.90;7.63;;;4.80;99.90;;;;;;5090914;28;20054;-79
2022/11/26 01:29:43;;;;;;;15.73;7.67;;;4.80;99.90;;;;;;5091110;28;20044;-79
2022/11/26 01:32:10;;;;;;;17.73;8.57;;;4.80;99.90;;;;;;5091134;28;20350;-79
2022/11/26 01:34:35;;;;;;;15.10;7.30;;;4.80;99.90;;;;;;5091051;28;20038;-79
2022/11/26 01:37:01;;;;;;;14.93;7.20;;;4.80;99.90;;;;;;5090945;28;20465;-79
2022/11/26 01:39:27;;;;;;;14.53;7.63;;;4.80;99.90;;;;;;5091037;28;20047;-79
2022/11/26 01:41:58;;;;;;;18.50;7.90;;;4.90;99.90;;;;;;5090714;28;20024;-79
2022/11/26 01:44:30;;;;;;;13.77;7.60;;;4.80;99.90;;;;;;5090031;28;20032;-79
2022/11/26 01:46:56;;;;;;;16.17;8.20;;;4.90;99.90;;;;;;5091114;28;20039;-79
2022/11/26 01:49:31;;;;;;;16.37;8.00;;;4.80;99.90;;;;;;5090557;28;20072;-79
2022/11/26 01:52:05;;;;;;;13.55;7.90;;;4.80;99.90;;;;;;5090862;28;20407;-79
2022/11/26 01:54:33;;;;;;;18.52;8.88;;;4.80;99.90;;;;;;5090731;28;20484;-79
2022/11/26 01:57:07;;;;;;;15.30;7.60;;;4.80;99.90;;;;;;5090390;28;20076;-79
2022/11/26 01:59:36;;;;;;;15.87;7.70;;;4.80;99.90;;;;;;5090846;28;20078;-79
2022/11/26 02:02:02;;;;;;;14.70;7.37;;;4.80;99.90;;;;;;5090455;28;20056;-79
2022/11/26 02:04:33;;;;;;;16.47;7.60;;;4.80;99.90;;;;;;5090741;28;20193;-79
2022/11/26 02:06:58;;;;;;;16.90;7.80;;;4.80;99.90;;;;;;5090453;28;20024;-79
2022/11/26 02:09:26;;;;;;;13.53;7.23;;;4.80;99.90;;;;;;5090421;28;20024;-79
2022/11/26 02:11:53;;;;;;;13.57;7.00;;;4.80;99.90;;;;;;5090295;28;20023;-79
2022/11/26 02:14:24;;;;;;;13.63;6.97;;;4.80;99.90;;;;;;5090417;28;20028;-79
2022/11/26 02:17:15;;;;;;;13.70;6.30;;;4.80;99.90;;;;;;5090376;28;20030;-79
2022/11/26 02:20:09;;;;;;;12.43;6.40;;;4.80;99.90;;;;;;5081746;28;20036;-79
2022/11/26 02:22:41;;;;;;;16.00;6.70;;;4.90;99.90;;;;;;5090205;28;20024;-79
2022/11/26 02:25:06;;;;;;;12.37;5.77;;;4.90;99.90;;;;;;5089012;28;20059;-79
2022/11/26 02:28:05;;;;;;;13.70;5.97;;;4.90;99.90;;;;;;5090198;28;20796;-79
2022/11/26 02:30:35;;;;;;;14.90;5.83;;;4.90;99.90;;;;;;5090287;28;20032;-79
2022/11/26 02:33:05;;;;;;;14.33;5.63;;;4.90;99.90;;;;;;5090224;28;20035;-79
2022/11/26 02:35:43;;;;;;;13.00;6.00;;;5.00;99.90;;;;;;5090277;28;20028;-79
2022/11/26 02:38:15;;;;;;;15.70;6.23;;;5.00;99.90;;;;;;5089959;28;20032;-79
2022/11/26 02:40:41;;;;;;;12.37;5.57;;;5.00;99.90;;;;;;5090174;28;20123;-79
2022/11/26 02:43:06;;;;;;;16.07;5.90;;;5.00;99.90;;;;;;5089502;28;20108;-79
2022/11/26 02:45:45;;;;;;;12.70;5.97;;;5.00;99.90;;;;;;5090236;28;20043;-79
2022/11/26 02:48:16;;;;;;;11.03;5.90;;;5.00;99.90;;;;;;5090138;28;20117;-79
2022/11/26 02:50:46;;;;;;;13.67;6.37;;;5.00;99.90;;;;;;5090215;28;20415;-80
2022/11/26 02:53:15;;;;;;;16.17;6.77;;;5.00;99.90;;;;;;5071441;28;20085;-79
2022/11/26 02:55:46;;;;;;;14.03;6.57;;;5.00;99.90;;;;;;5090959;28;20028;-80
2022/11/26 02:58:12;;;;;;;10.63;6.60;;;5.00;99.90;;;;;;5093711;28;20021;-80
2022/11/26 03:00:41;;;;;;;17.67;7.07;;;5.00;99.90;;;;;;5093808;28;20020;-80
2022/11/26 03:03:09;;;;;;;13.50;6.93;;;5.00;99.90;;;;;;5093918;28;20094;-80
2022/11/26 03:05:39;;;;;;;13.90;7.23;;;5.10;99.90;;;;;;5092781;28;20489;-80
2022/11/26 03:08:06;;;;;;;23.70;9.47;;;5.10;99.90;;;;;;5093922;28;20104;-80
2022/11/26 03:10:32;;;;;;;12.40;7.43;;;5.00;99.90;;;;;;5094125;28;20104;-79
2022/11/26 03:12:58;;;;;;;14.97;7.90;;;5.10;99.90;;;;;;5094012;28;20119;-80
2022/11/26 03:15:24;;;;;;;15.53;7.83;;;5.10;99.90;;;;;;5093616;28;20093;-77
2022/11/26 03:17:49;;;;;;;17.23;7.77;;;5.00;99.90;;;;;;5093591;28;20112;-76
2022/11/26 03:20:15;;;;;;;16.20;8.10;;;5.10;99.90;;;;;;5093777;28;20480;-77
2022/11/26 03:22:41;;;;;;;18.63;8.70;;;5.10;99.90;;;;;;5093357;28;20512;-76
2022/11/26 03:25:08;;;;;;;14.17;8.07;;;5.00;99.90;;;;;;5093607;28;20099;-76
2022/11/26 03:27:33;;;;;;;16.27;8.07;;;5.00;99.90;;;;;;5093396;28;20071;-76
2022/11/26 03:29:59;;;;;;;15.20;7.67;;;5.10;99.90;;;;;;5093268;28;20082;-76
2022/11/26 03:32:25;;;;;;;18.27;8.73;;;5.00;99.90;;;;;;5086865;28;20033;-76
2022/11/26 03:34:51;;;;;;;17.07;8.23;;;5.00;99.90;;;;;;5092158;28;20052;-77
2022/11/26 03:37:17;;;;;;;15.60;8.00;;;5.00;99.90;;;;;;5089591;28;20025;-77
2022/11/26 03:39:43;;;;;;;17.53;8.77;;;5.00;99.90;;;;;;5074841;28;20120;-75
2022/11/26 03:42:08;;;;;;;16.80;8.20;;;5.00;99.90;;;;;;5079046;28;20077;-76
2022/11/26 03:44:34;;;;;;;16.83;8.57;;;5.00;99.90;;;;;;5094426;28;20031;-75
2022/11/26 03:47:00;;;;;;;14.53;8.30;;;5.00;99.90;;;;;;5094650;28;20091;-75
2022/11/26 03:49:26;;;;;;;13.07;8.13;;;5.00;99.90;;;;;;5087339;28;20163;-76
2022/11/26 03:51:51;;;;;;;16.13;8.63;;;5.00;99.90;;;;;;5089920;28;20043;-76
2022/11/26 03:54:17;;;;;;;15.27;9.03;;;5.00;99.90;;;;;;5092239;28;20073;-77
2022/11/26 03:56:45;;;;;;;17.87;8.57;;;5.00;99.90;;;;;;5105135;28;20360;-80
2022/11/26 03:59:10;;;;;;;20.80;9.57;;;5.00;99.90;;;;;;5093003;28;20027;-79
2022/11/26 04:01:36;;;;;;;16.77;9.23;;;5.00;99.90;;;;;;5091648;28;20016;-77
2022/11/26 04:04:01;;;;;;;17.37;8.50;;;5.00;99.90;;;;;;5075644;28;20047;-77
2022/11/26 04:06:28;;;;;;;18.90;7.63;;;5.00;99.90;;;;;;5072318;28;20020;-77
2022/11/26 04:08:53;;;;;;;15.97;8.80;;;5.00;99.90;;;;;;5071434;28;20397;-77
2022/11/26 04:11:19;;;;;;;16.57;9.33;;;5.00;99.90;;;;;;5091148;28;20094;-77
2022/11/26 04:13:45;;;;;;;18.27;9.10;;;5.00;99.90;;;;;;5092396;28;20032;-77
2022/11/26 04:16:10;;;;;;;16.23;8.40;;;5.00;99.90;;;;;;5092727;28;20031;-77
2022/11/26 04:18:36;;;;;;;20.30;8.53;;;5.00;99.90;;;;;;5092444;28;20081;-77
2022/11/26 04:21:03;;;;;;;17.00;8.63;;;5.00;99.90;;;;;;5092573;28;20064;-77
2022/11/26 04:23:29;;;;;;;14.80;8.80;;;5.00;99.90;;;;;;5092329;28;20373;-77
2022/11/26 04:25:54;;;;;;;15.07;8.33;;;5.00;99.90;;;;;;5092255;28;20172;-77
2022/11/26 04:28:20;;;;;;;17.97;9.10;;;5.10;99.90;;;;;;5092579;28;20020;-77
2022/11/26 04:30:46;;;;;;;20.27;9.10;;;5.00;99.90;;;;;;5092426;28;20024;-77
2022/11/26 04:33:11;;;;;;;16.83;9.00;;;5.00;99.90;;;;;;5092549;28;20016;-77
2022/11/26 04:35:37;;;;;;;17.50;8.57;;;5.00;99.90;;;;;;5092356;28;20032;-77
2022/11/26 04:38:03;;;;;;;17.47;8.47;;;5.00;99.90;;;;;;5092118;28;20026;-77
2022/11/26 04:40:28;;;;;;;15.93;7.90;;;5.00;99.90;;;;;;5091516;28;20110;-77
2022/11/26 04:42:54;;;;;;;15.57;8.27;;;5.00;99.90;;;;;;5092122;28;20067;-77
2022/11/26 04:45:19;;;;;;;17.23;8.13;;;5.00;99.90;;;;;;5092068;28;20035;-76
2022/11/26 04:47:45;;;;;;;17.33;8.23;;;5.00;99.90;;;;;;5091587;28;20040;-76
2022/11/26 04:50:11;;;;;;;14.93;8.17;;;5.00;99.90;;;;;;5090705;28;20031;-77
2022/11/26 04:52:37;;;;;;;16.13;8.03;;;5.00;99.90;;;;;;5091181;28;20111;-77
2022/11/26 04:55:03;;;;;;;18.70;8.53;;;5.00;99.90;;;;;;5091983;28;20024;-77
2022/11/26 04:57:28;;;;;;;19.27;8.87;;;5.00;99.90;;;;;;5090614;28;20437;-77
2022/11/26 04:59:54;;;;;;;18.27;8.63;;;5.00;99.90;;;;;;5091914;28;20064;-77
2022/11/26 05:02:19;;;;;;;16.63;8.33;;;5.00;99.90;;;;;;5091651;28;20029;-77
2022/11/26 05:04:45;;;;;;;17.57;8.93;;;5.00;99.90;;;;;;5091735;28;20064;-77
2022/11/26 05:07:10;;;;;;;16.50;8.93;;;5.00;99.90;;;;;;5091743;28;20020;-77
2022/11/26 05:09:36;;;;;;;15.37;8.93;;;5.00;99.90;;;;;;5091897;28;20044;-77
2022/11/26 05:12:01;;;;;;;20.67;8.80;;;5.00;99.90;;;;;;5091768;28;20058;-76
2022/11/26 05:14:27;;;;;;;16.67;8.60;;;5.00;99.90;;;;;;5091637;28;20028;-76
2022/11/26 05:16:53;;;;;;;16.07;7.47;;;5.00;99.90;;;;;;5091301;28;20054;-76
2022/11/26 05:19:18;;;;;;;13.00;8.13;;;5.00;99.90;;;;;;5091366;28;20457;-76
2022/11/26 05:21:44;;;;;;;21.20;7.90;;;5.10;99.90;;;;;;5091129;28;20082;-77
2022/11/26 05:24:09;;;;;;;13.43;7.63;;;5.10;99.90;;;;;;5091523;28;20021;-77
2022/11/26 05:26:35;;;;;;;17.20;8.10;;;5.10;99.90;;;;;;5091295;28;20040;-76
2022/11/26 05:29:00;;;;;;;14.73;8.20;;;5.10;99.90;;;;;;5091293;28;20058;-76
2022/11/26 05:31:27;;;;;;;16.73;7.90;;;5.10;99.90;;;;;;5090961;28;20032;-71
2022/11/26 05:33:53;;;;;;;16.33;8.90;;;5.10;99.90;;;;;;5091230;28;20024;-71
2022/11/26 05:36:18;;;;;;;16.63;8.13;;;5.10;99.90;;;;;;5091147;28;20026;-71
2022/11/26 05:38:44;;;;;;;18.33;8.83;;;5.10;99.90;;;;;;5091243;28;20024;-71
2022/11/26 05:41:09;;;;;;;17.50;8.13;;;5.20;99.90;;;;;;5091209;28;20465;-71
2022/11/26 05:43:35;;;;;;;18.90;8.77;;;5.20;99.90;;;;;;5091124;28;20051;-71
2022/11/26 05:46:05;;;;;;;13.00;7.63;;;5.20;99.90;;;;;;5090612;28;20042;-71
2022/11/26 05:48:31;;;;;;;17.77;8.20;;;5.20;99.90;;;;;;5091077;28;20117;-71
2022/11/26 05:51:00;;;;;;;17.73;8.33;;;5.20;99.90;;;;;;5091030;28;20469;-70
2022/11/26 05:53:26;;;;;;;15.43;7.70;;;5.20;99.90;;;;;;5090649;28;20029;-71
2022/11/26 05:55:52;;;;;;;12.13;7.57;;;5.20;99.90;;;;;;5091088;28;20028;-71
2022/11/26 05:58:17;;;;;;;18.57;8.27;;;5.20;99.90;;;;;;5090935;28;20051;-78
2022/11/26 06:00:43;;;;;;;20.00;8.37;;;5.20;99.90;;;;;;5090993;28;20115;-78
2022/11/26 06:03:09;;;;;;;16.87;7.83;;;5.30;99.90;;;;;;5090866;28;20103;-79
2022/11/26 06:05:34;;;;;;;15.13;7.67;;;5.30;99.90;;;;;;5090966;28;20047;-79
2022/11/26 06:08:00;;;;;;;11.63;7.60;;;5.30;99.90;;;;;;5090506;28;20376;-79
2022/11/26 06:10:25;;;;;;;11.90;7.23;;;5.30;99.90;;;;;;5090680;28;20066;-79
2022/11/26 06:12:51;;;;;;;19.47;7.67;;;5.40;99.90;;;;;;5089390;28;20544;-79
2022/11/26 06:15:17;;;;;;;15.47;7.30;;;5.30;99.90;;;;;;5090653;28;20097;-79
2022/11/26 06:17:42;;;;;;;19.93;7.70;;;5.40;99.90;;;;;;5090508;28;20426;-79
2022/11/26 06:20:08;;;;;;;15.30;6.70;;;5.30;99.90;;;;;;5090619;28;20031;-79
2022/11/26 06:22:41;;;;;;;16.93;7.80;;;5.30;99.90;;;;;;5090445;28;20035;-78
2022/11/26 06:25:09;;;;;;;17.97;7.90;;;5.30;99.90;;;;;;5090510;28;20028;-79
2022/11/26 06:27:36;;;;;;;15.37;6.17;;;5.30;99.90;;;;;;5090634;28;20431;-79
2022/11/26 06:30:03;;;;;;;13.17;6.27;;;5.30;99.90;;;;;;5090210;28;20039;-79
2022/11/26 06:32:30;;;;;;;14.10;5.17;;;5.30;99.90;;;;;;5090459;28;20108;-80
2022/11/26 06:34:56;;;;;;;15.70;5.87;;;5.30;99.90;;;;;;5089971;28;20024;-79
2022/11/26 06:37:22;;;;;;;10.47;4.97;;;5.30;99.90;;;;;;5089896;28;20032;-80
2022/11/26 06:39:48;;;;;;;10.93;5.50;;;5.20;99.90;;;;;;5089917;28;20063;-77
2022/11/26 06:42:13;;;;;;;9.33;4.60;;;5.30;99.90;;;;;;5073920;28;20059;-77
2022/11/26 06:44:39;;;;;;;7.17;3.43;;;5.30;99.90;;;;;;5092050;28;20024;-77
2022/11/26 06:47:04;;;;;;;7.37;3.93;;;5.30;99.90;;;;;;5092153;28;20052;-77
2022/11/26 06:49:30;;;;;;;7.30;3.70;;;5.20;99.90;;;;;;5091861;28;20166;-77
2022/11/26 06:51:55;;;;;;;6.10;3.53;;;5.20;99.90;;;;;;5092224;28;20495;-77
2022/11/26 06:54:21;;;;;;;9.70;3.63;;;5.20;99.90;;;;;;5091627;28;20060;-77
2022/11/26 06:56:46;;;;;;;13.17;4.90;;;5.10;99.90;;;;;;5092124;28;20028;-77
2022/11/26 06:59:12;;;;;;;8.43;4.40;;;5.10;99.90;;;;;;5092053;28;20016;-78
2022/11/26 07:01:38;;;;;;;10.83;4.33;;;5.10;99.90;;;;;;5091698;28;20028;-78
2022/11/26 07:04:03;;;;;;;12.07;5.50;;;5.10;99.90;;;;;;5091770;28;20464;-78
2022/11/26 07:06:31;;;;;;;12.40;4.70;;;5.00;99.90;;;;;;5091814;28;20036;-83
2022/11/26 07:09:01;;;;;;;12.97;4.33;;;5.00;99.90;;;;;;5092096;28;20012;-84
2022/11/26 07:11:27;;;;;;;7.60;3.63;;;5.00;99.90;;;;;;5092124;28;20093;-83
2022/11/26 07:13:53;;;;;;;7.67;3.93;;;5.00;99.90;;;;;;5091673;28;20051;-83
2022/11/26 07:16:19;;;;;;;10.40;3.90;;;5.00;99.90;;;;;;5073683;28;20024;-84
2022/11/26 07:18:50;;;;;;;7.73;3.17;;;5.00;99.90;;;;;;5092488;28;20068;-84
2022/11/26 07:21:16;;;;;;;8.13;3.00;;;5.00;99.90;;;;;;5092193;28;20032;-84
2022/11/26 07:23:41;;;;;;;5.87;2.80;;;5.00;99.90;;;;;;5092115;28;20036;-83
2022/11/26 07:26:08;;;;;;;9.53;2.50;;;5.00;99.90;;;;;;5092013;28;20028;-84
2022/11/26 07:28:34;;;;;;;5.70;3.10;;;4.90;99.90;;;;;;5092201;28;20709;-84
2022/11/26 07:31:05;;;;;;;5.23;2.67;;;4.90;99.90;;;;;;5091970;28;20025;-83
2022/11/26 07:33:31;;;;;;;6.87;2.93;;;4.90;99.90;;;;;;5074016;28;20115;-84
2022/11/26 07:36:01;;;;;;;8.67;3.53;;;5.00;99.90;;;;;;5092264;28;20107;-84
2022/11/26 07:38:28;;;;;;;10.53;4.07;;;4.90;99.90;;;;;;5092029;28;20043;-84
2022/11/26 07:40:54;;;;;;;6.73;3.00;;;4.90;99.90;;;;;;5092252;28;20051;-84
2022/11/26 07:43:20;;;;;;;9.23;3.40;;;5.00;99.90;;;;;;5094110;28;20024;-84
2022/11/26 07:45:45;;;;;;;10.40;3.50;;;5.00;99.90;;;;;;5096063;28;20361;-84
2022/11/26 07:48:11;;;;;;;8.27;3.80;;;5.00;99.90;;;;;;5096051;28;20117;-85
2022/11/26 07:50:37;;;;;;;8.80;4.00;;;5.00;99.90;;;;;;5095272;28;20071;-86
2022/11/26 07:53:02;;;;;;;6.57;3.20;;;5.00;99.90;;;;;;5076085;28;20047;-82
2022/11/26 07:55:28;;;;;;;7.23;3.10;;;5.00;99.90;;;;;;5093835;28;20051;-82
2022/11/26 07:57:54;;;;;;;7.30;3.20;;;5.00;99.90;;;;;;5093772;28;20023;-82
2022/11/26 08:00:19;;;;;;;6.53;2.70;;;5.00;99.90;;;;;;5092449;28;20020;-81
2022/11/26 08:02:45;;;;;;;5.87;2.90;;;5.00;99.90;;;;;;5092989;28;20113;-82
2022/11/26 08:05:11;;;;;;;5.63;2.77;;;5.00;99.90;;;;;;5093441;28;20028;-85
2022/11/26 08:07:36;;;;;;;8.63;2.90;;;5.00;99.90;;;;;;5093061;28;20020;-81
2022/11/26 08:10:03;;;;;;;5.93;2.60;;;5.00;99.90;;;;;;5092997;28;20102;-81
2022/11/26 08:12:29;;;;;;;5.90;2.90;;;5.00;99.90;;;;;;5093245;28;20028;-82
2022/11/26 08:14:54;;;;;;;6.97;2.80;;;5.00;99.90;;;;;;5092750;28;20480;-81
2022/11/26 08:17:20;;;;;;;7.93;2.93;;;5.00;99.90;;;;;;5093251;28;20365;-82
2022/11/26 08:19:46;;;;;;;5.77;3.10;;;5.10;99.90;;;;;;5093008;28;20043;-82
2022/11/26 08:22:12;;;;;;;5.93;2.83;;;5.10;99.90;;;;;;5093350;28;20484;-82
2022/11/26 08:24:38;;;;;;;6.00;2.77;;;5.10;99.90;;;;;;5093744;28;20099;-82
2022/11/26 08:27:04;;;;;;;5.80;3.27;;;5.10;99.90;;;;;;5093380;28;20069;-82
2022/11/26 08:29:29;;;;;;;6.80;3.60;;;5.20;99.90;;;;;;5093267;28;20465;-82
2022/11/26 08:31:55;;;;;;;4.70;2.93;;;5.20;99.90;;;;;;5093873;28;20089;-82
2022/11/26 08:34:21;;;;;;;6.43;2.87;;;5.30;99.90;;;;;;5093317;28;20492;-89
2022/11/26 08:36:46;;;;;;;7.03;3.70;;;5.40;99.90;;;;;;5094655;28;20039;-80
2022/11/26 08:39:16;;;;;;;9.13;3.40;;;5.40;99.90;;;;;;5076534;28;20020;-81
2022/11/26 08:41:43;;;;;;;8.97;3.30;;;5.50;99.90;;;;;;5093982;28;20144;-80
2022/11/26 08:44:08;;;;;;;7.23;3.50;;;5.60;99.90;;;;;;5094585;28;20034;-81
2022/11/26 08:46:40;;;;;;;6.53;3.30;;;5.70;99.90;;;;;;5076414;28;20543;-80
2022/11/26 08:49:08;;;;;;;6.57;3.73;;;5.70;99.90;;;;;;5094396;28;20048;-80
2022/11/26 08:51:34;;;;;;;7.80;3.17;;;5.80;99.90;;;;;;5093509;28;20028;-81
2022/11/26 08:54:00;;;;;;;11.23;3.73;;;5.80;99.90;;;;;;5092811;28;20032;-81
2022/11/26 08:56:26;;;;;;;6.47;3.83;;;5.80;99.90;;;;;;5093121;28;20090;-80
2022/11/26 08:58:51;;;;;;;9.07;3.67;;;5.80;99.90;;;;;;5093109;28;20476;-81
2022/11/26 09:01:20;;;;;;;10.10;4.40;;;5.80;99.90;;;;;;5093629;28;20773;-81
2022/11/26 09:03:50;;;;;;;6.57;3.57;;;5.80;99.90;;;;;;5093145;28;20073;-81
2022/11/26 09:06:16;;;;;;;10.53;3.57;;;5.90;99.90;;;;;;5093192;28;20043;-79
2022/11/26 09:11:27;;;;;;;13.00;3.60;;;6.10;99.90;;;;;;5092268;28;20399;-81
2022/11/26 09:13:53;;;;;;;12.30;3.60;;;6.40;99.90;;;;;;5092843;28;20044;-79
2022/11/26 09:16:22;;;;;;;8.90;3.20;;;6.50;99.90;;;;;;5092755;28;20435;-79
2022/11/26 09:18:47;;;;;;;9.30;3.90;;;6.60;99.90;;;;;;5087617;28;20020;-79
2022/11/26 09:21:13;;;;;;;9.27;4.00;;;6.80;99.90;;;;;;5092439;28;20076;-77
2022/11/26 09:23:39;;;;;;;8.17;3.60;;;6.80;99.90;;;;;;5091287;28;20388;-77
2022/11/26 09:26:04;;;;;;;7.77;3.40;;;6.80;99.90;;;;;;5088977;28;20025;-77
2022/11/26 09:28:30;;;;;;;9.27;3.70;;;6.80;99.90;;;;;;5092104;28;20373;-77
2022/11/26 09:30:59;;;;;;;10.30;3.93;;;6.90;99.90;;;;;;5091788;28;20017;-77
2022/11/26 09:33:26;;;;;;;7.90;4.10;;;6.80;99.90;;;;;;5091978;28;20026;-76
2022/11/26 09:35:52;;;;;;;8.23;3.97;;;6.80;99.90;;;;;;5091843;28;20020;-77
2022/11/26 09:38:18;;;;;;;9.57;4.40;;;6.80;99.90;;;;;;5091798;28;20028;-77
2022/11/26 09:40:52;;;;;;;9.70;4.10;;;6.80;99.90;;;;;;5092377;28;20036;-76
2022/11/26 09:43:36;;;;;;;11.13;4.30;;;6.80;99.90;;;;;;5074924;28;20468;-75
2022/11/26 09:46:02;;;;;;;9.50;3.87;;;6.70;99.90;;;;;;5092007;28;20035;-76
2022/11/26 09:48:31;;;;;;;10.70;4.00;;;6.70;99.90;;;;;;5092295;28;20048;-76
2022/11/26 09:51:05;;;;;;;16.30;4.80;;;6.70;99.90;;;;;;5092152;28;20031;-76
2022/11/26 09:53:35;;;;;;;7.38;4.00;;;6.70;99.90;;;;;;5092308;28;20024;-76
2022/11/26 09:56:01;;;;;;;7.73;3.60;;;6.70;99.90;;;;;;5092228;28;20017;-76
2022/11/26 09:58:56;;;;;;;11.60;3.90;;;6.70;99.90;;;;;;5092136;28;20032;-76
2022/11/26 10:01:23;;;;;;;7.07;3.60;;;6.70;99.90;;;;;;5092179;28;20346;-76
2022/11/26 10:03:49;;;;;;;9.00;4.10;;;6.60;99.90;;;;;;5092342;28;20016;-76
2022/11/26 10:06:46;;;;;;;9.57;4.37;;;6.60;99.90;;;;;;5091198;28;20020;-76
2022/11/26 10:09:18;;;;;;;7.60;4.33;;;6.50;99.90;;;;;;5084336;28;20040;-76
2022/11/26 10:11:50;;;;;;;10.13;4.47;;;6.50;99.90;;;;;;5091736;28;20103;-76
2022/11/26 10:14:35;;;;;;;9.43;4.97;;;6.50;99.90;;;;;;5092897;28;20024;-78
2022/11/26 10:17:32;;;;;;;9.70;5.27;;;6.50;99.90;;;;;;5093097;28;20095;-78
2022/11/26 10:20:22;;;;;;;12.23;5.30;;;6.50;99.90;;;;;;5075528;28;20028;-81
2022/11/26 10:22:59;;;;;;;13.00;5.23;;;6.50;99.90;;;;;;5091688;28;20115;-78
2022/11/26 10:25:35;;;;;;;9.63;5.03;;;6.60;99.90;;;;;;5091188;28;20252;-78
2022/11/26 10:28:03;;;;;;;11.03;5.30;;;6.60;99.90;;;;;;5071274;28;20048;-78
2022/11/26 10:30:31;;;;;;;13.70;5.50;;;6.70;99.90;;;;;;5091358;28;20066;-78
2022/11/26 10:33:00;;;;;;;14.67;6.07;;;6.70;99.90;;;;;;5091013;28;20028;-78
2022/11/26 10:35:27;;;;;;;14.63;5.33;;;6.70;99.90;;;;;;5090870;28;20171;-77
2022/11/26 10:37:56;;;;;;;11.87;5.97;;;6.70;99.90;;;;;;5090666;28;20036;-78
2022/11/26 10:40:28;;;;;;;16.70;6.27;;;6.70;99.90;;;;;;5090556;28;20071;-78
2022/11/26 10:43:07;;;;;;;11.53;5.97;;;6.70;99.90;;;;;;5090528;28;20074;-78
2022/11/26 10:45:38;;;;;;;11.53;6.10;;;6.70;99.90;;;;;;5090739;28;20020;-78
2022/11/26 10:48:18;;;;;;;12.73;6.27;;;6.70;99.90;;;;;;5090451;28;20048;-78
2022/11/26 10:51:15;;;;;;;11.93;6.60;;;6.70;99.90;;;;;;5090759;28;20028;-77
2022/11/26 10:53:58;;;;;;;11.47;6.03;;;6.70;99.90;;;;;;5090299;28;20496;-78
2022/11/26 10:56:43;;;;;;;13.67;6.50;;;6.70;99.90;;;;;;5090815;28;20476;-78
2022/11/26 10:59:29;;;;;;;16.40;6.78;;;6.70;99.90;;;;;;5090472;28;20035;-77
2022/11/26 11:01:59;;;;;;;;;;;6.70;99.90;;;;;;5090976;28;20020;-78
2022/11/26 11:04:31;;;;;;;14.37;7.67;;;6.70;99.90;;;;;;5090700;28;19908;-78
2022/11/26 11:06:57;;;;;;;17.10;8.93;;;6.70;99.90;;;;;;5090635;28;20025;-78
2022/11/26 11:09:35;;;;;;;23.27;10.67;;;6.70;99.90;;;;;;5090487;28;20465;-77
2022/11/26 11:12:09;;;;;;;15.43;9.07;;;6.70;99.90;;;;;;5090157;28;20028;-75
2022/11/26 11:14:36;;;;;;;14.20;8.20;;;6.70;99.90;;;;;;5089738;28;20034;-77
2022/11/26 11:17:02;;;;;;;20.50;9.73;;;6.70;99.90;;;;;;5091801;28;20035;-77
2022/11/26 11:19:29;;;;;;;17.00;8.70;;;6.80;99.90;;;;;;5094493;28;20024;-77
2022/11/26 11:21:55;;;;;;;18.97;8.93;;;6.80;99.90;;;;;;5094705;28;20051;-77
2022/11/26 11:24:25;;;;;;;16.97;8.60;;;6.90;99.90;;;;;;5094650;28;20376;-77
2022/11/26 11:26:54;;;;;;;17.27;8.63;;;6.90;99.90;;;;;;5094688;28;20354;-77
2022/11/26 11:29:28;;;;;;;17.70;8.83;;;6.90;99.90;;;;;;5094320;28;20425;-77
2022/11/26 11:31:55;;;;;;;17.23;7.97;;;6.90;99.90;;;;;;5094650;28;20962;-77
2022/11/26 11:34:38;;;;;;;16.00;8.93;;;6.90;99.90;;;;;;5094696;28;20032;-77
2022/11/26 11:37:17;;;;;;;14.13;9.30;;;6.90;99.90;;;;;;5094253;28;20468;-77
2022/11/26 11:39:44;;;;;;;16.37;8.47;;;6.90;99.90;;;;;;5093912;28;20119;-79
2022/11/26 11:42:39;;;;;;;20.60;9.03;;;7.00;99.90;;;;;;5094321;28;20024;-77
2022/11/26 11:45:18;;;;;;;17.40;8.60;;;7.00;99.90;;;;;;5092649;28;20043;-77
2022/11/26 11:47:49;;;;;;;20.13;8.77;;;7.20;99.90;;;;;;5093698;28;20285;-77
2022/11/26 11:50:38;;;;;;;21.17;8.63;;;7.30;99.90;;;;;;5094251;28;20023;-77
2022/11/26 11:53:43;;;;;;;16.03;7.50;;;7.30;99.90;;;;;;5093911;28;20028;-77
2022/11/26 11:56:17;;;;;;;17.33;8.07;;;7.40;99.90;;;;;;5061815;28;20635;-77
2022/11/26 11:59:23;;;;;;;18.57;9.03;;;7.40;99.90;;;;;;5092849;28;20066;-76
2022/11/26 12:02:12;;;;;;;16.65;8.40;;;7.40;99.90;;;;;;5094449;28;20046;-84
2022/11/26 12:05:19;;;;;;;20.37;8.70;;;7.40;99.90;;;;;;5093981;28;20028;-80
2022/11/26 12:08:05;;;;;;;12.53;7.27;;;7.40;99.90;;;;;;5066356;28;20113;-81
2022/11/26 12:11:22;;;;;;;13.27;6.77;;;7.40;99.90;;;;;;5095825;28;20484;-83
2022/11/26 12:13:57;;;;;;;17.50;7.57;;;7.40;99.90;;;;;;5053023;28;20096;-80
2022/11/26 12:16:27;;;;;;;17.43;8.10;;;7.40;99.90;;;;;;5095156;28;20050;-81
2022/11/26 12:18:59;;;;;;;14.13;8.00;;;7.40;99.90;;;;;;5095358;28;20157;-80
2022/11/26 12:21:38;;;;;;;12.87;6.97;;;7.40;99.90;;;;;;5095415;28;20050;-80
2022/11/26 12:24:18;;;;;;;13.97;7.27;;;7.40;99.90;;;;;;5095121;28;20024;-80
2022/11/26 12:27:04;;;;;;;22.57;7.63;;;7.40;99.90;;;;;;5094832;28;20016;-81
2022/11/26 12:29:43;;;;;;;16.97;7.50;;;7.40;99.90;;;;;;5094023;28;20031;-81
2022/11/26 12:32:24;;;;;;;13.10;6.23;;;7.40;99.90;;;;;;5094775;28;20744;-81
2022/11/26 12:34:53;;;;;;;14.70;6.17;;;7.40;99.90;;;;;;5094755;28;20028;-81
2022/11/26 12:37:21;;;;;;;13.23;6.27;;;7.30;99.90;;;;;;5094554;28;20453;-81
2022/11/26 12:40:16;;;;;;;15.63;6.60;;;7.30;99.90;;;;;;5094206;28;20035;-81
2022/11/26 12:43:12;;;;;;;17.98;6.10;;;7.40;99.90;;;;;;5094388;28;20035;-81
2022/11/26 12:45:52;;;;;;;17.33;6.82;;;7.40;99.90;;;;;;5074431;28;20362;-82
2022/11/26 12:48:39;;;;;;;12.17;6.63;;;7.40;99.90;;;;;;5074631;28;20037;-82
2022/11/26 12:51:35;;;;;;;12.70;5.90;;;7.40;99.90;;;;;;5074652;28;20032;-81
2022/11/26 12:54:23;;;;;;;9.60;5.22;;;7.40;99.90;;;;;;5074291;28;20488;-81
2022/11/26 12:57:01;;;;;;;11.57;5.27;;;7.40;99.90;;;;;;5075673;28;20028;-75
2022/11/26 12:59:32;;;;;;;11.83;5.63;;;7.40;99.90;;;;;;5094283;28;20111;-82
2022/11/26 13:01:59;;;;;;;12.90;5.50;;;7.40;99.90;;;;;;5094128;28;20095;-85
2022/11/26 13:04:27;;;;;;;17.10;5.97;;;7.50;99.90;;;;;;5076749;28;20024;-81
2022/11/26 13:07:08;;;;;;;11.40;5.37;;;7.50;99.90;;;;;;5095287;28;20115;-83